sensor_id;sensor_type;location;lat;lon;timestamp;P1;durP1;ratioP1;P2;durP2;ratioP2
63342;SDS011;49465;57.664;39.686;2022-11-15T00:00:12;3.25;;;1.00;;
63342;SDS011;49465;57.664;39.686;2022-11-15T00:02:44;4.43;;;1.02;;
63342;SDS011;49465;57.664;39.686;2022-11-15T00:05:18;3.03;;;1.00;;
63342;SDS011;49465;57.664;39.686;2022-11-15T00:07:50;2.65;;;1.30;;
63342;SDS011;49465;57.664;39.686;2022-11-15T00:10:27;1.90;;;0.93;;
63342;SDS011;49465;57.664;39.686;2022-11-15T00:12:59;3.40;;;1.38;;
63342;SDS011;49465;57.664;39.686;2022-11-15T00:15:44;3.30;;;1.20;;
63342;SDS011;49465;57.664;39.686;2022-11-15T00:18:15;5.20;;;1.30;;
63342;SDS011;49465;57.664;39.686;2022-11-15T00:20:43;3.40;;;1.25;;
63342;SDS011;49465;57.664;39.686;2022-11-15T00:23:12;4.55;;;1.45;;
63342;SDS011;49465;57.664;39.686;2022-11-15T00:25:47;3.97;;;1.33;;
63342;SDS011;49465;57.664;39.686;2022-11-15T00:28:22;4.78;;;1.40;;
63342;SDS011;49465;57.664;39.686;2022-11-15T00:30:51;5.35;;;1.50;;
63342;SDS011;49465;57.664;39.686;2022-11-15T00:33:23;4.22;;;1.30;;
63342;SDS011;49465;57.664;39.686;2022-11-15T00:35:55;2.80;;;1.27;;
63342;SDS011;49465;57.664;39.686;2022-11-15T00:38:36;4.00;;;1.30;;
63342;SDS011;49465;57.664;39.686;2022-11-15T00:41:14;2.58;;;1.30;;
63342;SDS011;49465;57.664;39.686;2022-11-15T00:43:45;3.25;;;1.42;;
63342;SDS011;49465;57.664;39.686;2022-11-15T00:46:11;3.35;;;1.15;;
63342;SDS011;49465;57.664;39.686;2022-11-15T00:48:47;2.63;;;1.33;;
63342;SDS011;49465;57.664;39.686;2022-11-15T00:51:22;3.65;;;1.42;;
63342;SDS011;49465;57.664;39.686;2022-11-15T00:53:58;2.65;;;1.17;;
63342;SDS011;49465;57.664;39.686;2022-11-15T00:56:27;3.45;;;1.35;;
63342;SDS011;49465;57.664;39.686;2022-11-15T00:59:01;5.57;;;1.60;;
63342;SDS011;49465;57.664;39.686;2022-11-15T01:01:27;3.97;;;1.25;;
63342;SDS011;49465;57.664;39.686;2022-11-15T01:04:02;3.40;;;1.75;;
63342;SDS011;49465;57.664;39.686;2022-11-15T01:06:31;4.70;;;1.40;;
63342;SDS011;49465;57.664;39.686;2022-11-15T01:09:03;2.65;;;1.20;;
63342;SDS011;49465;57.664;39.686;2022-11-15T01:14:06;3.67;;;1.70;;
63342;SDS011;49465;57.664;39.686;2022-11-15T01:16:37;4.38;;;1.30;;
63342;SDS011;49465;57.664;39.686;2022-11-15T01:19:12;3.83;;;1.30;;
63342;SDS011;49465;57.664;39.686;2022-11-15T01:21:41;2.72;;;1.20;;
63342;SDS011;49465;57.664;39.686;2022-11-15T01:24:19;3.67;;;1.40;;
63342;SDS011;49465;57.664;39.686;2022-11-15T01:26:54;2.40;;;1.20;;
63342;SDS011;49465;57.664;39.686;2022-11-15T01:29:24;2.28;;;1.30;;
63342;SDS011;49465;57.664;39.686;2022-11-15T01:31:59;6.32;;;1.33;;
63342;SDS011;49465;57.664;39.686;2022-11-15T01:34:33;3.22;;;1.23;;
63342;SDS011;49465;57.664;39.686;2022-11-15T01:37:05;2.88;;;1.27;;
63342;SDS011;49465;57.664;39.686;2022-11-15T01:39:42;2.63;;;1.20;;
63342;SDS011;49465;57.664;39.686;2022-11-15T01:42:20;2.60;;;1.08;;
63342;SDS011;49465;57.664;39.686;2022-11-15T01:44:50;3.17;;;1.10;;
63342;SDS011;49465;57.664;39.686;2022-11-15T01:47:27;2.30;;;1.20;;
63342;SDS011;49465;57.664;39.686;2022-11-15T01:50:09;2.80;;;1.15;;
63342;SDS011;49465;57.664;39.686;2022-11-15T01:52:45;2.78;;;1.30;;
63342;SDS011;49465;57.664;39.686;2022-11-15T01:55:24;2.78;;;1.40;;
63342;SDS011;49465;57.664;39.686;2022-11-15T01:57:56;3.92;;;1.70;;
63342;SDS011;49465;57.664;39.686;2022-11-15T02:00:35;3.50;;;1.30;;
63342;SDS011;49465;57.664;39.686;2022-11-15T02:03:10;2.35;;;1.17;;
63342;SDS011;49465;57.664;39.686;2022-11-15T02:05:42;3.70;;;1.33;;
63342;SDS011;49465;57.664;39.686;2022-11-15T02:08:15;3.25;;;1.10;;
63342;SDS011;49465;57.664;39.686;2022-11-15T02:10:47;2.67;;;1.05;;
63342;SDS011;49465;57.664;39.686;2022-11-15T02:13:19;3.63;;;1.27;;
63342;SDS011;49465;57.664;39.686;2022-11-15T02:18:40;2.72;;;1.20;;
63342;SDS011;49465;57.664;39.686;2022-11-15T02:21:19;3.08;;;1.40;;
63342;SDS011;49465;57.664;39.686;2022-11-15T02:32:51;2.15;;;1.10;;
63342;SDS011;49465;57.664;39.686;2022-11-15T02:41:15;2.90;;;1.15;;
63342;SDS011;49465;57.664;39.686;2022-11-15T02:44:15;2.72;;;1.10;;
63342;SDS011;49465;57.664;39.686;2022-11-15T02:46:58;3.70;;;1.00;;
63342;SDS011;49465;57.664;39.686;2022-11-15T02:49:41;1.92;;;0.85;;
63342;SDS011;49465;57.664;39.686;2022-11-15T02:52:23;1.95;;;1.00;;
63342;SDS011;49465;57.664;39.686;2022-11-15T02:55:00;2.80;;;0.88;;
63342;SDS011;49465;57.664;39.686;2022-11-15T02:57:36;1.92;;;1.00;;
63342;SDS011;49465;57.664;39.686;2022-11-15T03:00:19;4.45;;;0.90;;
63342;SDS011;49465;57.664;39.686;2022-11-15T03:06:16;2.05;;;0.95;;
63342;SDS011;49465;57.664;39.686;2022-11-15T03:09:01;1.70;;;0.80;;
63342;SDS011;49465;57.664;39.686;2022-11-15T03:11:45;2.13;;;0.80;;
63342;SDS011;49465;57.664;39.686;2022-11-15T03:14:28;4.32;;;1.00;;
63342;SDS011;49465;57.664;39.686;2022-11-15T03:18:05;2.92;;;1.00;;
63342;SDS011;49465;57.664;39.686;2022-11-15T03:20:10;1.50;;;0.80;;
63342;SDS011;49465;57.664;39.686;2022-11-15T03:22:47;3.90;;;0.90;;
63342;SDS011;49465;57.664;39.686;2022-11-15T03:25:24;2.17;;;0.70;;
63342;SDS011;49465;57.664;39.686;2022-11-15T03:27:59;2.83;;;0.93;;
63342;SDS011;49465;57.664;39.686;2022-11-15T03:30:36;2.72;;;0.90;;
63342;SDS011;49465;57.664;39.686;2022-11-15T03:33:10;6.88;;;0.88;;
63342;SDS011;49465;57.664;39.686;2022-11-15T03:35:43;1.45;;;0.80;;
63342;SDS011;49465;57.664;39.686;2022-11-15T03:41:00;3.10;;;0.80;;
63342;SDS011;49465;57.664;39.686;2022-11-15T03:43:54;4.28;;;1.10;;
63342;SDS011;49465;57.664;39.686;2022-11-15T03:46:31;3.90;;;0.85;;
63342;SDS011;49465;57.664;39.686;2022-11-15T03:49:12;2.72;;;0.70;;
63342;SDS011;49465;57.664;39.686;2022-11-15T03:52:00;2.42;;;0.80;;
63342;SDS011;49465;57.664;39.686;2022-11-15T03:54:31;2.78;;;0.70;;
63342;SDS011;49465;57.664;39.686;2022-11-15T03:57:04;1.90;;;0.63;;
63342;SDS011;49465;57.664;39.686;2022-11-15T03:59:38;4.40;;;1.38;;
63342;SDS011;49465;57.664;39.686;2022-11-15T04:02:10;2.92;;;1.00;;
63342;SDS011;49465;57.664;39.686;2022-11-15T04:04:47;1.13;;;0.75;;
63342;SDS011;49465;57.664;39.686;2022-11-15T04:07:25;2.97;;;1.00;;
63342;SDS011;49465;57.664;39.686;2022-11-15T04:09:57;2.05;;;1.10;;
63342;SDS011;49465;57.664;39.686;2022-11-15T04:12:35;2.10;;;1.10;;
63342;SDS011;49465;57.664;39.686;2022-11-15T04:15:15;5.88;;;3.60;;
63342;SDS011;49465;57.664;39.686;2022-11-15T04:17:51;8.10;;;4.88;;
63342;SDS011;49465;57.664;39.686;2022-11-15T04:20:28;6.03;;;2.20;;
63342;SDS011;49465;57.664;39.686;2022-11-15T04:23:16;4.18;;;1.60;;
63342;SDS011;49465;57.664;39.686;2022-11-15T04:26:07;3.53;;;1.60;;
63342;SDS011;49465;57.664;39.686;2022-11-15T04:28:42;2.22;;;1.20;;
63342;SDS011;49465;57.664;39.686;2022-11-15T04:31:30;2.25;;;0.98;;
63342;SDS011;49465;57.664;39.686;2022-11-15T04:34:01;3.78;;;1.00;;
63342;SDS011;49465;57.664;39.686;2022-11-15T04:36:33;2.47;;;0.95;;
63342;SDS011;49465;57.664;39.686;2022-11-15T04:39:30;3.60;;;1.50;;
63342;SDS011;49465;57.664;39.686;2022-11-15T04:42:09;3.53;;;1.08;;
63342;SDS011;49465;57.664;39.686;2022-11-15T04:44:44;1.83;;;0.90;;
63342;SDS011;49465;57.664;39.686;2022-11-15T04:47:16;3.72;;;1.45;;
63342;SDS011;49465;57.664;39.686;2022-11-15T04:52:27;5.32;;;2.20;;
63342;SDS011;49465;57.664;39.686;2022-11-15T04:54:56;4.72;;;1.98;;
63342;SDS011;49465;57.664;39.686;2022-11-15T04:57:26;3.97;;;1.17;;
63342;SDS011;49465;57.664;39.686;2022-11-15T04:59:52;2.72;;;1.20;;
63342;SDS011;49465;57.664;39.686;2022-11-15T05:02:30;3.45;;;0.85;;
63342;SDS011;49465;57.664;39.686;2022-11-15T05:05:17;4.07;;;0.88;;
63342;SDS011;49465;57.664;39.686;2022-11-15T05:07:43;5.32;;;1.80;;
63342;SDS011;49465;57.664;39.686;2022-11-15T05:10:18;3.50;;;1.90;;
63342;SDS011;49465;57.664;39.686;2022-11-15T05:12:46;3.88;;;1.58;;
63342;SDS011;49465;57.664;39.686;2022-11-15T05:15:23;7.63;;;2.38;;
63342;SDS011;49465;57.664;39.686;2022-11-15T05:17:57;3.35;;;1.10;;
63342;SDS011;49465;57.664;39.686;2022-11-15T05:20:34;1.67;;;0.90;;
63342;SDS011;49465;57.664;39.686;2022-11-15T05:23:06;3.88;;;0.90;;
63342;SDS011;49465;57.664;39.686;2022-11-15T05:25:35;3.63;;;1.00;;
63342;SDS011;49465;57.664;39.686;2022-11-15T05:28:04;4.22;;;1.10;;
63342;SDS011;49465;57.664;39.686;2022-11-15T05:30:39;2.40;;;0.80;;
63342;SDS011;49465;57.664;39.686;2022-11-15T05:33:07;2.13;;;0.70;;
63342;SDS011;49465;57.664;39.686;2022-11-15T05:35:41;2.38;;;1.05;;
63342;SDS011;49465;57.664;39.686;2022-11-15T05:38:15;2.13;;;0.90;;
63342;SDS011;49465;57.664;39.686;2022-11-15T05:40:46;2.60;;;0.82;;
63342;SDS011;49465;57.664;39.686;2022-11-15T05:43:28;1.85;;;0.90;;
63342;SDS011;49465;57.664;39.686;2022-11-15T05:46:09;3.22;;;0.93;;
63342;SDS011;49465;57.664;39.686;2022-11-15T05:48:45;3.10;;;0.90;;
63342;SDS011;49465;57.664;39.686;2022-11-15T05:51:19;1.95;;;0.93;;
63342;SDS011;49465;57.664;39.686;2022-11-15T05:53:52;3.67;;;0.90;;
63342;SDS011;49465;57.664;39.686;2022-11-15T05:56:31;2.17;;;0.90;;
63342;SDS011;49465;57.664;39.686;2022-11-15T05:59:03;2.15;;;0.80;;
63342;SDS011;49465;57.664;39.686;2022-11-15T06:01:38;2.47;;;0.88;;
63342;SDS011;49465;57.664;39.686;2022-11-15T06:04:10;3.10;;;1.10;;
63342;SDS011;49465;57.664;39.686;2022-11-15T06:06:52;3.38;;;1.80;;
63342;SDS011;49465;57.664;39.686;2022-11-15T06:09:21;7.47;;;4.95;;
63342;SDS011;49465;57.664;39.686;2022-11-15T06:11:53;4.95;;;3.17;;
63342;SDS011;49465;57.664;39.686;2022-11-15T06:14:27;4.78;;;2.80;;
63342;SDS011;49465;57.664;39.686;2022-11-15T06:16:59;5.32;;;2.90;;
63342;SDS011;49465;57.664;39.686;2022-11-15T06:19:31;3.50;;;1.85;;
63342;SDS011;49465;57.664;39.686;2022-11-15T06:22:03;3.83;;;1.10;;
63342;SDS011;49465;57.664;39.686;2022-11-15T06:24:37;2.65;;;1.08;;
63342;SDS011;49465;57.664;39.686;2022-11-15T06:29:46;3.88;;;1.30;;
63342;SDS011;49465;57.664;39.686;2022-11-15T06:32:23;5.10;;;1.42;;
63342;SDS011;49465;57.664;39.686;2022-11-15T06:34:58;2.70;;;1.50;;
63342;SDS011;49465;57.664;39.686;2022-11-15T06:37:33;3.33;;;1.80;;
63342;SDS011;49465;57.664;39.686;2022-11-15T06:40:11;3.90;;;1.50;;
63342;SDS011;49465;57.664;39.686;2022-11-15T06:42:40;2.38;;;1.33;;
63342;SDS011;49465;57.664;39.686;2022-11-15T06:47:51;5.05;;;1.58;;
63342;SDS011;49465;57.664;39.686;2022-11-15T06:50:26;3.30;;;1.20;;
63342;SDS011;49465;57.664;39.686;2022-11-15T06:53:03;2.80;;;1.42;;
63342;SDS011;49465;57.664;39.686;2022-11-15T06:55:44;2.72;;;1.60;;
63342;SDS011;49465;57.664;39.686;2022-11-15T06:58:13;3.88;;;1.17;;
63342;SDS011;49465;57.664;39.686;2022-11-15T07:00:52;2.65;;;1.10;;
63342;SDS011;49465;57.664;39.686;2022-11-15T07:03:21;3.40;;;1.48;;
63342;SDS011;49465;57.664;39.686;2022-11-15T07:05:56;6.60;;;1.65;;
63342;SDS011;49465;57.664;39.686;2022-11-15T07:08:23;3.42;;;1.50;;
63342;SDS011;49465;57.664;39.686;2022-11-15T07:11:00;2.80;;;1.30;;
63342;SDS011;49465;57.664;39.686;2022-11-15T07:13:33;3.92;;;1.60;;
63342;SDS011;49465;57.664;39.686;2022-11-15T07:16:07;2.80;;;1.80;;
63342;SDS011;49465;57.664;39.686;2022-11-15T07:18:38;5.80;;;1.70;;
63342;SDS011;49465;57.664;39.686;2022-11-15T07:21:08;4.07;;;1.60;;
63342;SDS011;49465;57.664;39.686;2022-11-15T07:23:38;3.90;;;1.50;;
63342;SDS011;49465;57.664;39.686;2022-11-15T07:26:14;3.17;;;1.60;;
63342;SDS011;49465;57.664;39.686;2022-11-15T07:28:48;2.95;;;1.40;;
63342;SDS011;49465;57.664;39.686;2022-11-15T07:31:22;4.07;;;1.45;;
63342;SDS011;49465;57.664;39.686;2022-11-15T07:33:55;3.70;;;1.73;;
63342;SDS011;49465;57.664;39.686;2022-11-15T07:36:34;4.35;;;1.38;;
63342;SDS011;49465;57.664;39.686;2022-11-15T07:39:04;5.45;;;1.50;;
63342;SDS011;49465;57.664;39.686;2022-11-15T07:41:45;2.70;;;1.30;;
63342;SDS011;49465;57.664;39.686;2022-11-15T07:44:20;6.28;;;1.48;;
63342;SDS011;49465;57.664;39.686;2022-11-15T07:46:52;2.40;;;1.30;;
63342;SDS011;49465;57.664;39.686;2022-11-15T07:49:26;4.82;;;1.40;;
63342;SDS011;49465;57.664;39.686;2022-11-15T07:52:03;3.13;;;1.35;;
63342;SDS011;49465;57.664;39.686;2022-11-15T07:54:35;3.58;;;1.50;;
63342;SDS011;49465;57.664;39.686;2022-11-15T07:57:11;2.88;;;1.20;;
63342;SDS011;49465;57.664;39.686;2022-11-15T07:59:48;4.10;;;1.50;;
63342;SDS011;49465;57.664;39.686;2022-11-15T08:02:22;3.40;;;1.77;;
63342;SDS011;49465;57.664;39.686;2022-11-15T08:04:56;4.25;;;1.98;;
63342;SDS011;49465;57.664;39.686;2022-11-15T08:07:29;3.45;;;1.70;;
63342;SDS011;49465;57.664;39.686;2022-11-15T08:12:31;7.38;;;3.47;;
63342;SDS011;49465;57.664;39.686;2022-11-15T08:15:03;6.07;;;2.90;;
63342;SDS011;49465;57.664;39.686;2022-11-15T08:17:38;7.20;;;3.00;;
63342;SDS011;49465;57.664;39.686;2022-11-15T08:20:10;6.05;;;2.45;;
63342;SDS011;49465;57.664;39.686;2022-11-15T08:22:39;5.65;;;2.83;;
63342;SDS011;49465;57.664;39.686;2022-11-15T08:25:14;5.50;;;2.70;;
63342;SDS011;49465;57.664;39.686;2022-11-15T08:27:45;3.25;;;1.60;;
63342;SDS011;49465;57.664;39.686;2022-11-15T08:30:17;3.50;;;2.08;;
63342;SDS011;49465;57.664;39.686;2022-11-15T08:32:48;11.32;;;4.95;;
63342;SDS011;49465;57.664;39.686;2022-11-15T08:35:18;6.65;;;3.40;;
63342;SDS011;49465;57.664;39.686;2022-11-15T08:37:47;7.32;;;2.65;;
63342;SDS011;49465;57.664;39.686;2022-11-15T08:40:19;4.32;;;1.77;;
63342;SDS011;49465;57.664;39.686;2022-11-15T08:42:54;4.70;;;1.88;;
63342;SDS011;49465;57.664;39.686;2022-11-15T08:45:29;3.92;;;1.90;;
63342;SDS011;49465;57.664;39.686;2022-11-15T08:48:05;6.28;;;1.80;;
63342;SDS011;49465;57.664;39.686;2022-11-15T08:50:40;4.40;;;1.90;;
63342;SDS011;49465;57.664;39.686;2022-11-15T08:53:14;2.90;;;1.73;;
63342;SDS011;49465;57.664;39.686;2022-11-15T08:55:40;3.65;;;1.40;;
63342;SDS011;49465;57.664;39.686;2022-11-15T08:58:14;3.67;;;1.52;;
63342;SDS011;49465;57.664;39.686;2022-11-15T09:03:12;4.47;;;1.70;;
63342;SDS011;49465;57.664;39.686;2022-11-15T09:05:39;3.33;;;1.60;;
63342;SDS011;49465;57.664;39.686;2022-11-15T09:08:17;4.03;;;1.50;;
63342;SDS011;49465;57.664;39.686;2022-11-15T09:10:46;2.22;;;1.40;;
63342;SDS011;49465;57.664;39.686;2022-11-15T09:13:21;2.58;;;1.45;;
63342;SDS011;49465;57.664;39.686;2022-11-15T09:15:50;3.00;;;1.58;;
63342;SDS011;49465;57.664;39.686;2022-11-15T09:18:25;4.00;;;1.63;;
63342;SDS011;49465;57.664;39.686;2022-11-15T09:21:01;6.15;;;3.55;;
63342;SDS011;49465;57.664;39.686;2022-11-15T09:23:32;80.10;;;51.60;;
63342;SDS011;49465;57.664;39.686;2022-11-15T09:26:06;83.88;;;54.88;;
63342;SDS011;49465;57.664;39.686;2022-11-15T09:28:38;39.13;;;25.73;;
63342;SDS011;49465;57.664;39.686;2022-11-15T09:31:09;51.75;;;33.05;;
63342;SDS011;49465;57.664;39.686;2022-11-15T09:33:49;22.33;;;13.48;;
63342;SDS011;49465;57.664;39.686;2022-11-15T09:36:21;22.65;;;15.15;;
63342;SDS011;49465;57.664;39.686;2022-11-15T09:38:50;14.63;;;9.85;;
63342;SDS011;49465;57.664;39.686;2022-11-15T09:41:30;15.65;;;9.70;;
63342;SDS011;49465;57.664;39.686;2022-11-15T09:50:48;18.35;;;11.75;;
63342;SDS011;49465;57.664;39.686;2022-11-15T09:53:13;19.23;;;12.93;;
63342;SDS011;49465;57.664;39.686;2022-11-15T09:56:13;13.65;;;6.95;;
63342;SDS011;49465;57.664;39.686;2022-11-15T09:58:58;13.32;;;8.48;;
63342;SDS011;49465;57.664;39.686;2022-11-15T10:01:50;19.02;;;12.18;;
63342;SDS011;49465;57.664;39.686;2022-11-15T10:04:41;13.15;;;8.20;;
63342;SDS011;49465;57.664;39.686;2022-11-15T10:07:28;14.02;;;8.38;;
63342;SDS011;49465;57.664;39.686;2022-11-15T10:10:20;8.98;;;5.35;;
63342;SDS011;49465;57.664;39.686;2022-11-15T10:13:02;8.13;;;4.82;;
63342;SDS011;49465;57.664;39.686;2022-11-15T10:15:44;12.88;;;7.57;;
63342;SDS011;49465;57.664;39.686;2022-11-15T10:19:00;11.95;;;7.43;;
63342;SDS011;49465;57.664;39.686;2022-11-15T10:21:20;13.63;;;7.47;;
63342;SDS011;49465;57.664;39.686;2022-11-15T10:24:10;10.80;;;4.65;;
63342;SDS011;49465;57.664;39.686;2022-11-15T10:26:49;10.95;;;5.20;;
63342;SDS011;49465;57.664;39.686;2022-11-15T10:29:27;10.10;;;5.43;;
63342;SDS011;49465;57.664;39.686;2022-11-15T10:32:04;6.97;;;3.67;;
63342;SDS011;49465;57.664;39.686;2022-11-15T10:34:42;7.60;;;3.88;;
63342;SDS011;49465;57.664;39.686;2022-11-15T10:37:14;11.48;;;6.57;;
63342;SDS011;49465;57.664;39.686;2022-11-15T10:40:05;9.98;;;4.93;;
63342;SDS011;49465;57.664;39.686;2022-11-15T10:42:49;5.68;;;3.38;;
63342;SDS011;49465;57.664;39.686;2022-11-15T10:45:43;7.32;;;4.65;;
63342;SDS011;49465;57.664;39.686;2022-11-15T10:48:21;10.25;;;4.43;;
63342;SDS011;49465;57.664;39.686;2022-11-15T10:50:58;8.25;;;3.88;;
63342;SDS011;49465;57.664;39.686;2022-11-15T10:53:53;10.95;;;5.72;;
63342;SDS011;49465;57.664;39.686;2022-11-15T10:56:35;11.80;;;6.25;;
63342;SDS011;49465;57.664;39.686;2022-11-15T10:59:18;10.20;;;4.53;;
63342;SDS011;49465;57.664;39.686;2022-11-15T11:02:08;8.23;;;4.43;;
63342;SDS011;49465;57.664;39.686;2022-11-15T11:05:05;10.57;;;3.92;;
63342;SDS011;49465;57.664;39.686;2022-11-15T11:08:34;7.45;;;3.28;;
63342;SDS011;49465;57.664;39.686;2022-11-15T11:11:03;6.20;;;3.28;;
63342;SDS011;49465;57.664;39.686;2022-11-15T11:13:47;7.88;;;3.50;;
63342;SDS011;49465;57.664;39.686;2022-11-15T11:19:53;10.32;;;4.65;;
63342;SDS011;49465;57.664;39.686;2022-11-15T11:29:15;11.27;;;4.43;;
63342;SDS011;49465;57.664;39.686;2022-11-15T11:41:06;31.35;;;7.20;;
63342;SDS011;49465;57.664;39.686;2022-11-15T11:47:25;9.65;;;3.80;;
63342;SDS011;49465;57.664;39.686;2022-11-15T11:50:46;15.77;;;3.53;;
63342;SDS011;49465;57.664;39.686;2022-11-15T11:55:59;9.13;;;2.53;;
63342;SDS011;49465;57.664;39.686;2022-11-15T11:58:37;10.45;;;3.05;;
63342;SDS011;49465;57.664;39.686;2022-11-15T12:01:19;13.57;;;2.80;;
63342;SDS011;49465;57.664;39.686;2022-11-15T12:03:59;22.30;;;3.50;;
63342;SDS011;49465;57.664;39.686;2022-11-15T12:06:41;19.63;;;3.20;;
63342;SDS011;49465;57.664;39.686;2022-11-15T12:09:36;13.65;;;3.00;;
63342;SDS011;49465;57.664;39.686;2022-11-15T12:15:09;10.05;;;2.92;;
63342;SDS011;49465;57.664;39.686;2022-11-15T12:17:44;17.70;;;3.35;;
63342;SDS011;49465;57.664;39.686;2022-11-15T12:20:23;7.40;;;2.80;;
63342;SDS011;49465;57.664;39.686;2022-11-15T12:23:18;12.52;;;3.10;;
63342;SDS011;49465;57.664;39.686;2022-11-15T12:29:01;14.35;;;3.00;;
63342;SDS011;49465;57.664;39.686;2022-11-15T12:31:55;9.88;;;3.20;;
63342;SDS011;49465;57.664;39.686;2022-11-15T12:40:27;14.65;;;3.95;;
63342;SDS011;49465;57.664;39.686;2022-11-15T12:45:48;13.70;;;5.82;;
63342;SDS011;49465;57.664;39.686;2022-11-15T13:00:00;15.88;;;5.80;;
63342;SDS011;49465;57.664;39.686;2022-11-15T13:02:49;16.23;;;5.18;;
63342;SDS011;49465;57.664;39.686;2022-11-15T13:08:37;10.80;;;4.90;;
63342;SDS011;49465;57.664;39.686;2022-11-15T13:17:31;14.05;;;5.10;;
63342;SDS011;49465;57.664;39.686;2022-11-15T13:23:09;14.27;;;4.78;;
63342;SDS011;49465;57.664;39.686;2022-11-15T13:28:29;15.27;;;4.03;;
63342;SDS011;49465;57.664;39.686;2022-11-15T13:31:25;13.25;;;4.22;;
63342;SDS011;49465;57.664;39.686;2022-11-15T13:34:25;13.43;;;4.55;;
63342;SDS011;49465;57.664;39.686;2022-11-15T13:37:03;15.98;;;4.90;;
63342;SDS011;49465;57.664;39.686;2022-11-15T13:39:53;16.65;;;4.43;;
63342;SDS011;49465;57.664;39.686;2022-11-15T13:42:46;16.98;;;3.92;;
63342;SDS011;49465;57.664;39.686;2022-11-15T13:45:23;13.60;;;4.10;;
63342;SDS011;49465;57.664;39.686;2022-11-15T13:48:02;20.58;;;4.90;;
63342;SDS011;49465;57.664;39.686;2022-11-15T13:50:33;14.15;;;4.50;;
63342;SDS011;49465;57.664;39.686;2022-11-15T13:53:20;18.35;;;4.65;;
63342;SDS011;49465;57.664;39.686;2022-11-15T13:55:54;15.88;;;4.68;;
63342;SDS011;49465;57.664;39.686;2022-11-15T13:58:26;18.38;;;5.30;;
63342;SDS011;49465;57.664;39.686;2022-11-15T14:01:04;13.18;;;5.80;;
63342;SDS011;49465;57.664;39.686;2022-11-15T14:03:46;15.95;;;6.15;;
63342;SDS011;49465;57.664;39.686;2022-11-15T14:06:22;19.45;;;7.45;;
63342;SDS011;49465;57.664;39.686;2022-11-15T14:11:59;21.95;;;6.45;;
63342;SDS011;49465;57.664;39.686;2022-11-15T14:14:30;18.77;;;5.75;;
63342;SDS011;49465;57.664;39.686;2022-11-15T14:17:20;16.60;;;5.47;;
63342;SDS011;49465;57.664;39.686;2022-11-15T14:19:59;16.55;;;5.22;;
63342;SDS011;49465;57.664;39.686;2022-11-15T14:26:25;21.10;;;6.32;;
63342;SDS011;49465;57.664;39.686;2022-11-15T14:29:21;31.80;;;6.18;;
63342;SDS011;49465;57.664;39.686;2022-11-15T14:34:54;29.55;;;5.70;;
63342;SDS011;49465;57.664;39.686;2022-11-15T14:37:35;20.05;;;5.05;;
63342;SDS011;49465;57.664;39.686;2022-11-15T14:40:08;23.38;;;5.35;;
63342;SDS011;49465;57.664;39.686;2022-11-15T14:42:47;22.20;;;5.10;;
63342;SDS011;49465;57.664;39.686;2022-11-15T14:45:19;28.70;;;5.53;;
63342;SDS011;49465;57.664;39.686;2022-11-15T14:48:05;30.70;;;5.95;;
63342;SDS011;49465;57.664;39.686;2022-11-15T14:50:37;28.30;;;6.25;;
63342;SDS011;49465;57.664;39.686;2022-11-15T14:53:10;29.15;;;6.28;;
63342;SDS011;49465;57.664;39.686;2022-11-15T14:55:49;26.08;;;7.50;;
63342;SDS011;49465;57.664;39.686;2022-11-15T14:58:23;32.97;;;10.65;;
63342;SDS011;49465;57.664;39.686;2022-11-15T15:00:56;28.52;;;10.35;;
63342;SDS011;49465;57.664;39.686;2022-11-15T15:03:32;33.72;;;13.82;;
63342;SDS011;49465;57.664;39.686;2022-11-15T15:06:15;30.00;;;12.95;;
63342;SDS011;49465;57.664;39.686;2022-11-15T15:08:49;26.58;;;11.10;;
63342;SDS011;49465;57.664;39.686;2022-11-15T15:11:27;40.38;;;12.50;;
63342;SDS011;49465;57.664;39.686;2022-11-15T15:14:02;29.63;;;9.50;;
63342;SDS011;49465;57.664;39.686;2022-11-15T15:16:32;29.98;;;8.48;;
63342;SDS011;49465;57.664;39.686;2022-11-15T15:19:04;28.05;;;8.38;;
63342;SDS011;49465;57.664;39.686;2022-11-15T15:21:39;31.33;;;7.10;;
63342;SDS011;49465;57.664;39.686;2022-11-15T15:24:17;29.20;;;7.55;;
63342;SDS011;49465;57.664;39.686;2022-11-15T15:26:55;38.65;;;6.97;;
63342;SDS011;49465;57.664;39.686;2022-11-15T15:29:34;33.53;;;6.78;;
63342;SDS011;49465;57.664;39.686;2022-11-15T15:32:10;46.92;;;8.10;;
63342;SDS011;49465;57.664;39.686;2022-11-15T15:34:50;35.75;;;6.80;;
63342;SDS011;49465;57.664;39.686;2022-11-15T15:37:24;39.90;;;6.70;;
63342;SDS011;49465;57.664;39.686;2022-11-15T15:39:57;40.22;;;6.75;;
63342;SDS011;49465;57.664;39.686;2022-11-15T15:42:26;37.42;;;6.88;;
63342;SDS011;49465;57.664;39.686;2022-11-15T15:45:01;35.72;;;7.03;;
63342;SDS011;49465;57.664;39.686;2022-11-15T15:47:28;35.78;;;7.07;;
63342;SDS011;49465;57.664;39.686;2022-11-15T15:50:00;33.17;;;7.50;;
63342;SDS011;49465;57.664;39.686;2022-11-15T15:52:39;31.67;;;7.43;;
63342;SDS011;49465;57.664;39.686;2022-11-15T15:55:08;44.33;;;7.60;;
63342;SDS011;49465;57.664;39.686;2022-11-15T15:57:43;38.35;;;7.55;;
63342;SDS011;49465;57.664;39.686;2022-11-15T16:00:16;43.33;;;7.80;;
63342;SDS011;49465;57.664;39.686;2022-11-15T16:02:49;53.08;;;8.90;;
63342;SDS011;49465;57.664;39.686;2022-11-15T16:05:18;59.50;;;9.15;;
63342;SDS011;49465;57.664;39.686;2022-11-15T16:07:56;38.70;;;8.55;;
63342;SDS011;49465;57.664;39.686;2022-11-15T16:10:31;52.83;;;8.93;;
63342;SDS011;49465;57.664;39.686;2022-11-15T16:13:09;43.83;;;8.85;;
63342;SDS011;49465;57.664;39.686;2022-11-15T16:15:47;56.42;;;11.13;;
63342;SDS011;49465;57.664;39.686;2022-11-15T16:18:22;45.95;;;9.68;;
63342;SDS011;49465;57.664;39.686;2022-11-15T16:21:02;50.08;;;9.43;;
63342;SDS011;49465;57.664;39.686;2022-11-15T16:23:40;46.03;;;10.80;;
63342;SDS011;49465;57.664;39.686;2022-11-15T16:26:24;41.15;;;11.10;;
63342;SDS011;49465;57.664;39.686;2022-11-15T16:29:00;42.80;;;9.82;;
63342;SDS011;49465;57.664;39.686;2022-11-15T16:31:39;41.63;;;9.90;;
63342;SDS011;49465;57.664;39.686;2022-11-15T16:34:22;40.88;;;10.23;;
63342;SDS011;49465;57.664;39.686;2022-11-15T16:37:00;35.85;;;12.10;;
63342;SDS011;49465;57.664;39.686;2022-11-15T16:39:33;42.65;;;11.73;;
63342;SDS011;49465;57.664;39.686;2022-11-15T16:42:15;33.45;;;11.65;;
63342;SDS011;49465;57.664;39.686;2022-11-15T16:44:58;31.67;;;10.75;;
63342;SDS011;49465;57.664;39.686;2022-11-15T16:47:24;35.17;;;10.07;;
63342;SDS011;49465;57.664;39.686;2022-11-15T16:49:56;33.15;;;10.07;;
63342;SDS011;49465;57.664;39.686;2022-11-15T16:52:32;32.00;;;8.98;;
63342;SDS011;49465;57.664;39.686;2022-11-15T16:55:09;46.50;;;11.55;;
63342;SDS011;49465;57.664;39.686;2022-11-15T16:57:44;42.60;;;11.32;;
63342;SDS011;49465;57.664;39.686;2022-11-15T17:00:13;48.97;;;10.68;;
63342;SDS011;49465;57.664;39.686;2022-11-15T17:02:52;54.38;;;11.55;;
63342;SDS011;49465;57.664;39.686;2022-11-15T17:05:24;48.30;;;11.35;;
63342;SDS011;49465;57.664;39.686;2022-11-15T17:08:06;44.95;;;11.52;;
63342;SDS011;49465;57.664;39.686;2022-11-15T17:10:39;40.33;;;11.20;;
63342;SDS011;49465;57.664;39.686;2022-11-15T17:13:16;45.58;;;11.52;;
63342;SDS011;49465;57.664;39.686;2022-11-15T17:18:35;34.75;;;11.73;;
63342;SDS011;49465;57.664;39.686;2022-11-15T17:21:19;35.42;;;11.82;;
63342;SDS011;49465;57.664;39.686;2022-11-15T17:24:07;32.20;;;11.70;;
63342;SDS011;49465;57.664;39.686;2022-11-15T17:26:42;24.02;;;12.07;;
63342;SDS011;49465;57.664;39.686;2022-11-15T17:29:19;28.73;;;12.35;;